CAL133 ROAH-RCKH
Flight info
| Callsign | CAL133 |
|---|---|
| Flight time | 1h 22m |
| Altitude | 38000 |
| Route | GANJU Y576 LILRA Y26 IGURU Q13 PICHU J7 HCN HCN1H |
| Aircraft | B77W/H-SDE1E2E3FGHIJ1J2J3J5M1P2RWY/LB1D1 |
Departure
| Time | 2026-04-15 13:54 |
|---|---|
| Airport | Naha International Airport (ROAH) |
Arrival
| Time | 2026-04-15 15:16 |
|---|---|
| Airport | Kaohsiung International Airport (RCKH) |
| Time | Latitude | Longitude | Altitude | Speed | Heading |
|---|---|---|---|---|---|
| 2026-04-15 13:20 | 26.21006 | 127.64969 | 26 ft | 0 kts | 87° |
| 2026-04-15 13:41 | 26.21006 | 127.64964 | 26 ft | 3 kts | 87° |
| 2026-04-15 13:41 | 26.21006 | 127.64935 | 26 ft | 4 kts | 101° |
| 2026-04-15 13:42 | 26.21014 | 127.64907 | 25 ft | 4 kts | 124° |
| 2026-04-15 13:42 | 26.21033 | 127.64887 | 31 ft | 4 kts | 158° |
| 2026-04-15 13:42 | 26.21052 | 127.64882 | 28 ft | 4 kts | 177° |
| 2026-04-15 13:42 | 26.21077 | 127.64881 | 30 ft | 2 kts | 178° |
| 2026-04-15 13:43 | 26.21079 | 127.64881 | 25 ft | 0 kts | 178° |
| 2026-04-15 13:47 | 26.20905 | 127.64770 | 26 ft | 13 kts | 243° |
| 2026-04-15 13:47 | 26.20813 | 127.64736 | 22 ft | 16 kts | 178° |
| 2026-04-15 13:47 | 26.20693 | 127.64741 | 22 ft | 19 kts | 177° |
| 2026-04-15 13:48 | 26.20603 | 127.64746 | 22 ft | 20 kts | 178° |
| 2026-04-15 13:48 | 26.20410 | 127.64755 | 25 ft | 22 kts | 177° |
| 2026-04-15 13:48 | 26.20271 | 127.64761 | 22 ft | 15 kts | 178° |
| 2026-04-15 13:48 | 26.20161 | 127.64767 | 25 ft | 17 kts | 177° |
| 2026-04-15 13:49 | 26.20079 | 127.64770 | 24 ft | 18 kts | 178° |
| 2026-04-15 13:49 | 26.19898 | 127.64779 | 23 ft | 21 kts | 177° |
| 2026-04-15 13:49 | 26.19796 | 127.64784 | 23 ft | 22 kts | 177° |
| 2026-04-15 13:49 | 26.19645 | 127.64791 | 24 ft | 22 kts | 177° |
| 2026-04-15 13:50 | 26.19490 | 127.64799 | 24 ft | 23 kts | 178° |
| 2026-04-15 13:50 | 26.19327 | 127.64806 | 23 ft | 24 kts | 178° |
| 2026-04-15 13:50 | 26.19163 | 127.64814 | 23 ft | 24 kts | 177° |
| 2026-04-15 13:50 | 26.19011 | 127.64821 | 24 ft | 22 kts | 178° |
| 2026-04-15 13:51 | 26.18850 | 127.64828 | 22 ft | 24 kts | 177° |
| 2026-04-15 13:51 | 26.18680 | 127.64836 | 25 ft | 25 kts | 178° |
| 2026-04-15 13:51 | 26.18547 | 127.64843 | 21 ft | 17 kts | 178° |
| 2026-04-15 13:51 | 26.18422 | 127.64849 | 24 ft | 17 kts | 178° |
| 2026-04-15 13:52 | 26.18329 | 127.64853 | 23 ft | 10 kts | 178° |
| 2026-04-15 13:52 | 26.18275 | 127.64845 | 25 ft | 8 kts | 202° |
| 2026-04-15 13:52 | 26.18243 | 127.64788 | 25 ft | 10 kts | 261° |
| 2026-04-15 13:52 | 26.18241 | 127.64718 | 22 ft | 8 kts | 268° |
| 2026-04-15 13:53 | 26.18246 | 127.64675 | 20 ft | 6 kts | 292° |
| 2026-04-15 13:53 | 26.18281 | 127.64652 | 22 ft | 7 kts | 347° |
| 2026-04-15 13:53 | 26.18341 | 127.64646 | 23 ft | 19 kts | 356° |
| 2026-04-15 13:53 | 26.18694 | 127.64629 | 25 ft | 92 kts | 357° |
| 2026-04-15 13:54 | 26.19592 | 127.64585 | 27 ft | 163 kts | 358° |
| 2026-04-15 13:54 | 26.20774 | 127.64527 | 635 ft | 172 kts | 358° |
| 2026-04-15 13:54 | 26.21974 | 127.64470 | 1442 ft | 172 kts | 357° |
| 2026-04-15 13:54 | 26.23250 | 127.64414 | 1825 ft | 198 kts | 357° |
| 2026-04-15 13:55 | 26.24740 | 127.64349 | 2099 ft | 229 kts | 354° |
| 2026-04-15 13:55 | 26.26264 | 127.63740 | 2604 ft | 245 kts | 319° |
| 2026-04-15 13:55 | 26.27178 | 127.62129 | 3478 ft | 254 kts | 286° |
| 2026-04-15 13:55 | 26.27205 | 127.60167 | 4515 ft | 256 kts | 259° |
| 2026-04-15 13:56 | 26.26605 | 127.58286 | 5490 ft | 261 kts | 248° |
| 2026-04-15 13:56 | 26.25798 | 127.56448 | 6426 ft | 266 kts | 245° |
| 2026-04-15 13:56 | 26.24937 | 127.54611 | 7312 ft | 269 kts | 245° |
| 2026-04-15 13:56 | 26.24068 | 127.52758 | 8205 ft | 272 kts | 245° |
| 2026-04-15 13:57 | 26.23188 | 127.50873 | 9115 ft | 276 kts | 245° |
| 2026-04-15 13:57 | 26.22302 | 127.48968 | 10020 ft | 278 kts | 246° |
| 2026-04-15 13:57 | 26.21401 | 127.47018 | 10665 ft | 292 kts | 246° |
| 2026-04-15 13:57 | 26.20429 | 127.44895 | 10898 ft | 322 kts | 245° |
| 2026-04-15 13:58 | 26.19376 | 127.42585 | 11153 ft | 349 kts | 245° |
| 2026-04-15 13:58 | 26.18248 | 127.40115 | 11890 ft | 360 kts | 245° |
| 2026-04-15 13:58 | 26.17101 | 127.37605 | 12865 ft | 365 kts | 245° |
| 2026-04-15 13:58 | 26.15951 | 127.35087 | 13923 ft | 368 kts | 245° |
| 2026-04-15 13:59 | 26.14785 | 127.32530 | 14881 ft | 371 kts | 245° |
| 2026-04-15 13:59 | 26.13608 | 127.29949 | 15807 ft | 375 kts | 245° |
| 2026-04-15 13:59 | 26.12422 | 127.27345 | 16699 ft | 380 kts | 245° |
| 2026-04-15 13:59 | 26.11220 | 127.24705 | 17597 ft | 384 kts | 245° |
| 2026-04-15 14:00 | 26.10007 | 127.22046 | 18453 ft | 388 kts | 245° |
| 2026-04-15 14:00 | 26.08780 | 127.19358 | 19239 ft | 391 kts | 245° |
| 2026-04-15 14:00 | 26.07544 | 127.16648 | 19999 ft | 394 kts | 245° |
| 2026-04-15 14:00 | 26.06297 | 127.13918 | 20767 ft | 398 kts | 245° |
| 2026-04-15 14:01 | 26.03776 | 127.08399 | 22160 ft | 408 kts | 245° |
| 2026-04-15 14:01 | 26.02480 | 127.05569 | 22881 ft | 412 kts | 245° |
| 2026-04-15 14:01 | 26.01175 | 127.02716 | 23603 ft | 416 kts | 245° |
| 2026-04-15 14:02 | 25.99860 | 126.99844 | 24191 ft | 419 kts | 245° |
| 2026-04-15 14:02 | 25.98529 | 126.96941 | 24797 ft | 422 kts | 245° |
| 2026-04-15 14:02 | 25.97191 | 126.94025 | 25402 ft | 424 kts | 245° |
| 2026-04-15 14:02 | 25.95844 | 126.91091 | 25963 ft | 428 kts | 245° |
| 2026-04-15 14:03 | 25.94486 | 126.88132 | 26484 ft | 433 kts | 245° |
| 2026-04-15 14:03 | 25.93107 | 126.85133 | 26997 ft | 437 kts | 245° |
| 2026-04-15 14:03 | 25.91721 | 126.82118 | 27521 ft | 441 kts | 245° |
| 2026-04-15 14:03 | 25.90319 | 126.79070 | 28044 ft | 444 kts | 245° |
| 2026-04-15 14:04 | 25.88908 | 126.76003 | 28533 ft | 448 kts | 245° |
| 2026-04-15 14:04 | 25.87483 | 126.72911 | 28992 ft | 452 kts | 245° |
| 2026-04-15 14:04 | 25.86011 | 126.69805 | 29440 ft | 456 kts | 244° |
| 2026-04-15 14:04 | 25.84451 | 126.66724 | 29918 ft | 459 kts | 243° |
| 2026-04-15 14:05 | 25.82851 | 126.63651 | 30331 ft | 461 kts | 242° |
| 2026-04-15 14:05 | 25.81233 | 126.60562 | 30715 ft | 463 kts | 242° |
| 2026-04-15 14:05 | 25.79615 | 126.57463 | 31090 ft | 465 kts | 243° |
| 2026-04-15 14:05 | 25.78005 | 126.54364 | 31557 ft | 463 kts | 243° |
| 2026-04-15 14:06 | 25.76408 | 126.51276 | 32132 ft | 460 kts | 243° |
| 2026-04-15 14:06 | 25.74828 | 126.48211 | 32711 ft | 456 kts | 243° |
| 2026-04-15 14:06 | 25.73259 | 126.45165 | 33275 ft | 453 kts | 243° |
| 2026-04-15 14:06 | 25.71706 | 126.42148 | 33822 ft | 450 kts | 243° |
| 2026-04-15 14:07 | 25.70157 | 126.39138 | 34284 ft | 448 kts | 243° |
| 2026-04-15 14:07 | 25.68633 | 126.36182 | 34694 ft | 446 kts | 243° |
| 2026-04-15 14:07 | 25.67098 | 126.33206 | 35092 ft | 445 kts | 243° |
| 2026-04-15 14:07 | 25.65562 | 126.30231 | 35500 ft | 443 kts | 243° |
| 2026-04-15 14:08 | 25.64031 | 126.27265 | 35908 ft | 442 kts | 243° |
| 2026-04-15 14:08 | 25.62510 | 126.24320 | 36320 ft | 440 kts | 242° |
| 2026-04-15 14:08 | 25.60995 | 126.21390 | 36731 ft | 438 kts | 242° |
| 2026-04-15 14:08 | 25.59480 | 126.18464 | 37134 ft | 436 kts | 242° |
| 2026-04-15 14:09 | 25.57975 | 126.15561 | 37452 ft | 436 kts | 242° |
| 2026-04-15 14:09 | 25.56462 | 126.12643 | 37742 ft | 436 kts | 242° |
| 2026-04-15 14:09 | 25.54948 | 126.09722 | 37896 ft | 439 kts | 242° |
| 2026-04-15 14:10 | 25.51900 | 126.03851 | 37972 ft | 439 kts | 242° |
| 2026-04-15 14:10 | 25.48878 | 125.98036 | 37962 ft | 433 kts | 242° |
| 2026-04-15 14:11 | 25.45878 | 125.92267 | 37969 ft | 432 kts | 242° |
| 2026-04-15 14:11 | 25.42881 | 125.86515 | 37967 ft | 432 kts | 242° |
| 2026-04-15 14:12 | 25.39879 | 125.80762 | 37962 ft | 432 kts | 242° |
| 2026-04-15 14:12 | 25.36870 | 125.74998 | 37976 ft | 433 kts | 242° |
| 2026-04-15 14:13 | 25.33846 | 125.69236 | 37969 ft | 434 kts | 242° |
| 2026-04-15 14:13 | 25.30771 | 125.63479 | 37966 ft | 436 kts | 241° |
| 2026-04-15 14:14 | 25.27683 | 125.57713 | 37968 ft | 436 kts | 241° |
| 2026-04-15 14:14 | 25.24592 | 125.51938 | 37955 ft | 437 kts | 242° |
| 2026-04-15 14:15 | 25.21500 | 125.46161 | 37969 ft | 437 kts | 241° |
| 2026-04-15 14:15 | 25.18428 | 125.40427 | 37967 ft | 437 kts | 241° |
| 2026-04-15 14:16 | 25.15331 | 125.34651 | 37966 ft | 437 kts | 241° |
| 2026-04-15 14:16 | 25.12234 | 125.28885 | 37963 ft | 437 kts | 241° |
| 2026-04-15 14:17 | 25.08981 | 125.23225 | 37945 ft | 438 kts | 236° |
| 2026-04-15 14:17 | 25.05278 | 125.17832 | 37952 ft | 438 kts | 235° |
| 2026-04-15 14:18 | 25.01643 | 125.12517 | 37950 ft | 437 kts | 236° |
| 2026-04-15 14:18 | 24.97951 | 125.07180 | 37946 ft | 438 kts | 234° |
| 2026-04-15 14:19 | 24.94075 | 125.01994 | 37949 ft | 438 kts | 233° |
| 2026-04-15 14:19 | 24.90198 | 124.96817 | 37937 ft | 439 kts | 233° |
| 2026-04-15 14:20 | 24.86341 | 124.91612 | 37952 ft | 438 kts | 233° |
| 2026-04-15 14:20 | 24.82389 | 124.86496 | 37974 ft | 440 kts | 229° |
| 2026-04-15 14:21 | 24.77871 | 124.81921 | 37961 ft | 442 kts | 225° |
| 2026-04-15 14:21 | 24.73290 | 124.77396 | 37966 ft | 442 kts | 225° |
| 2026-04-15 14:22 | 24.68717 | 124.72856 | 37970 ft | 442 kts | 225° |
| 2026-04-15 14:22 | 24.64158 | 124.68319 | 37940 ft | 443 kts | 225° |
| 2026-04-15 14:23 | 24.59594 | 124.63778 | 37969 ft | 443 kts | 225° |
| 2026-04-15 14:23 | 24.55024 | 124.59235 | 37963 ft | 443 kts | 225° |
| 2026-04-15 14:24 | 24.50457 | 124.54700 | 37957 ft | 442 kts | 225° |
| 2026-04-15 14:24 | 24.45899 | 124.50177 | 37951 ft | 442 kts | 225° |
| 2026-04-15 14:25 | 24.41331 | 124.45652 | 37953 ft | 442 kts | 225° |
| 2026-04-15 14:25 | 24.36789 | 124.41157 | 37942 ft | 443 kts | 225° |
| 2026-04-15 14:26 | 24.32211 | 124.36630 | 37944 ft | 444 kts | 225° |
| 2026-04-15 14:26 | 24.27618 | 124.32094 | 37936 ft | 444 kts | 225° |
| 2026-04-15 14:27 | 24.23033 | 124.27570 | 37949 ft | 443 kts | 225° |
| 2026-04-15 14:27 | 24.18448 | 124.23051 | 37950 ft | 444 kts | 225° |
| 2026-04-15 14:28 | 24.13852 | 124.18524 | 37956 ft | 444 kts | 225° |
| 2026-04-15 14:28 | 24.09262 | 124.14007 | 37960 ft | 444 kts | 225° |
| 2026-04-15 14:29 | 24.04662 | 124.09485 | 37957 ft | 444 kts | 225° |
| 2026-04-15 14:29 | 24.00067 | 124.04972 | 37965 ft | 444 kts | 225° |
| 2026-04-15 14:30 | 23.95597 | 124.00320 | 37959 ft | 442 kts | 231° |
| 2026-04-15 14:30 | 23.91846 | 123.95042 | 37961 ft | 439 kts | 238° |
| 2026-04-15 14:31 | 23.88438 | 123.89511 | 37958 ft | 439 kts | 238° |
| 2026-04-15 14:31 | 23.85019 | 123.83978 | 37960 ft | 439 kts | 238° |
| 2026-04-15 14:32 | 23.81590 | 123.78458 | 37961 ft | 440 kts | 237° |
| 2026-04-15 14:32 | 23.78145 | 123.72935 | 37954 ft | 440 kts | 238° |
| 2026-04-15 14:33 | 23.74692 | 123.67406 | 37966 ft | 441 kts | 237° |
| 2026-04-15 14:33 | 23.71236 | 123.61879 | 37955 ft | 441 kts | 237° |
| 2026-04-15 14:34 | 23.67776 | 123.56350 | 37939 ft | 441 kts | 237° |
| 2026-04-15 14:34 | 23.64338 | 123.50858 | 37954 ft | 441 kts | 237° |
| 2026-04-15 14:35 | 23.60869 | 123.45329 | 37957 ft | 442 kts | 237° |
| 2026-04-15 14:35 | 23.57399 | 123.39803 | 37959 ft | 442 kts | 237° |
| 2026-04-15 14:36 | 23.54487 | 123.35169 | 37956 ft | 442 kts | 237° |
| 2026-04-15 14:36 | 23.51006 | 123.29640 | 37956 ft | 443 kts | 237° |
| 2026-04-15 14:37 | 23.47519 | 123.24103 | 37948 ft | 443 kts | 237° |
| 2026-04-15 14:37 | 23.44059 | 123.18612 | 37960 ft | 443 kts | 237° |
| 2026-04-15 14:38 | 23.40570 | 123.13084 | 37953 ft | 443 kts | 237° |
| 2026-04-15 14:38 | 23.37055 | 123.07519 | 37954 ft | 443 kts | 237° |
| 2026-04-15 14:39 | 23.33586 | 123.02035 | 37953 ft | 443 kts | 237° |
| 2026-04-15 14:39 | 23.29926 | 122.96635 | 37935 ft | 444 kts | 234° |
| 2026-04-15 14:39 | 23.28016 | 122.93999 | 39393 ft | 444 kts | 233° |
| 2026-04-15 14:40 | 23.26090 | 122.91362 | 37858 ft | 439 kts | 233° |
| 2026-04-15 14:40 | 23.22343 | 122.86233 | 37947 ft | 437 kts | 233° |
| 2026-04-15 14:41 | 23.18516 | 122.80968 | 37960 ft | 449 kts | 233° |
| 2026-04-15 14:41 | 23.14632 | 122.75618 | 37950 ft | 451 kts | 233° |
| 2026-04-15 14:42 | 23.10739 | 122.70260 | 37943 ft | 451 kts | 233° |
| 2026-04-15 14:42 | 23.06865 | 122.64937 | 37944 ft | 449 kts | 233° |
| 2026-04-15 14:43 | 23.03001 | 122.59626 | 37949 ft | 447 kts | 233° |
| 2026-04-15 14:43 | 22.99155 | 122.54347 | 37945 ft | 445 kts | 233° |
| 2026-04-15 14:44 | 22.95312 | 122.49080 | 37946 ft | 444 kts | 233° |
| 2026-04-15 14:44 | 22.91484 | 122.43837 | 37944 ft | 443 kts | 233° |
| 2026-04-15 14:45 | 22.87654 | 122.38595 | 37926 ft | 443 kts | 233° |
| 2026-04-15 14:45 | 22.83817 | 122.33350 | 37950 ft | 444 kts | 233° |
| 2026-04-15 14:46 | 22.79970 | 122.28096 | 37944 ft | 446 kts | 233° |
| 2026-04-15 14:46 | 22.76111 | 122.22832 | 37938 ft | 447 kts | 233° |
| 2026-04-15 14:47 | 22.72260 | 122.17587 | 37940 ft | 448 kts | 233° |
| 2026-04-15 14:47 | 22.68381 | 122.12306 | 37939 ft | 448 kts | 233° |
| 2026-04-15 14:48 | 22.64495 | 122.07021 | 37938 ft | 449 kts | 233° |
| 2026-04-15 14:48 | 22.60605 | 122.01736 | 37938 ft | 449 kts | 233° |
| 2026-04-15 14:49 | 22.56716 | 121.96458 | 37942 ft | 449 kts | 233° |
| 2026-04-15 14:49 | 22.52825 | 121.91184 | 37928 ft | 448 kts | 233° |
| 2026-04-15 14:50 | 22.48938 | 121.85920 | 37929 ft | 449 kts | 233° |
| 2026-04-15 14:50 | 22.45040 | 121.80643 | 37901 ft | 448 kts | 233° |
| 2026-04-15 14:51 | 22.41150 | 121.75382 | 37920 ft | 448 kts | 233° |
| 2026-04-15 14:51 | 22.37256 | 121.70123 | 37912 ft | 449 kts | 233° |
| 2026-04-15 14:52 | 22.33346 | 121.64854 | 37915 ft | 449 kts | 232° |
| 2026-04-15 14:52 | 22.31394 | 121.62226 | 37713 ft | 452 kts | 232° |
| 2026-04-15 14:52 | 22.29398 | 121.59540 | 36934 ft | 460 kts | 233° |
| 2026-04-15 14:52 | 22.27397 | 121.56849 | 36221 ft | 459 kts | 232° |
| 2026-04-15 14:53 | 22.25396 | 121.54160 | 35451 ft | 460 kts | 233° |
| 2026-04-15 14:53 | 22.23398 | 121.51475 | 34829 ft | 457 kts | 232° |
| 2026-04-15 14:53 | 22.21410 | 121.48802 | 34218 ft | 455 kts | 233° |
| 2026-04-15 14:53 | 22.19459 | 121.46181 | 33608 ft | 453 kts | 233° |
| 2026-04-15 14:54 | 22.17465 | 121.43505 | 32979 ft | 450 kts | 233° |
| 2026-04-15 14:54 | 22.15538 | 121.40921 | 32402 ft | 447 kts | 233° |
| 2026-04-15 14:54 | 22.13574 | 121.38292 | 31860 ft | 443 kts | 232° |
| 2026-04-15 14:54 | 22.11665 | 121.35743 | 31300 ft | 440 kts | 233° |
| 2026-04-15 14:55 | 22.09753 | 121.33186 | 30761 ft | 438 kts | 233° |
| 2026-04-15 14:55 | 22.07841 | 121.30633 | 30207 ft | 436 kts | 233° |
| 2026-04-15 14:55 | 22.05940 | 121.28095 | 29608 ft | 434 kts | 233° |
| 2026-04-15 14:55 | 22.04050 | 121.25571 | 28992 ft | 431 kts | 233° |
| 2026-04-15 14:56 | 22.02174 | 121.23070 | 28442 ft | 427 kts | 233° |
| 2026-04-15 14:56 | 22.00447 | 121.20451 | 27870 ft | 422 kts | 241° |
| 2026-04-15 14:56 | 21.99221 | 121.17643 | 27339 ft | 417 kts | 251° |
| 2026-04-15 14:56 | 21.98486 | 121.14645 | 26805 ft | 413 kts | 261° |
| 2026-04-15 14:57 | 21.98274 | 121.11580 | 26275 ft | 410 kts | 271° |
| 2026-04-15 14:57 | 21.98589 | 121.08497 | 25742 ft | 407 kts | 281° |
| 2026-04-15 14:57 | 21.99221 | 121.05577 | 25249 ft | 405 kts | 284° |
| 2026-04-15 14:57 | 21.99973 | 121.02617 | 24769 ft | 402 kts | 285° |
| 2026-04-15 14:58 | 22.00725 | 120.99773 | 24327 ft | 399 kts | 285° |
| 2026-04-15 14:58 | 22.01485 | 120.96914 | 23954 ft | 394 kts | 285° |
| 2026-04-15 14:58 | 22.02237 | 120.94095 | 23622 ft | 389 kts | 285° |
| 2026-04-15 14:58 | 22.02978 | 120.91320 | 23311 ft | 381 kts | 285° |
| 2026-04-15 14:59 | 22.03719 | 120.88553 | 22908 ft | 379 kts | 285° |
| 2026-04-15 14:59 | 22.04442 | 120.85858 | 22520 ft | 380 kts | 285° |
| 2026-04-15 14:59 | 22.05175 | 120.83122 | 22170 ft | 378 kts | 285° |
| 2026-04-15 14:59 | 22.05900 | 120.80415 | 21759 ft | 374 kts | 285° |
| 2026-04-15 15:00 | 22.06619 | 120.77732 | 21237 ft | 373 kts | 285° |
| 2026-04-15 15:00 | 22.07336 | 120.75052 | 20761 ft | 371 kts | 285° |
| 2026-04-15 15:00 | 22.08050 | 120.72387 | 20329 ft | 368 kts | 285° |
| 2026-04-15 15:00 | 22.08758 | 120.69744 | 19912 ft | 365 kts | 285° |
| 2026-04-15 15:01 | 22.09460 | 120.67123 | 19501 ft | 363 kts | 285° |
| 2026-04-15 15:01 | 22.10158 | 120.64519 | 19065 ft | 361 kts | 285° |
| 2026-04-15 15:01 | 22.10852 | 120.61933 | 18647 ft | 359 kts | 285° |
| 2026-04-15 15:01 | 22.11541 | 120.59358 | 18239 ft | 356 kts | 285° |
| 2026-04-15 15:02 | 22.12226 | 120.56804 | 17765 ft | 353 kts | 285° |
| 2026-04-15 15:02 | 22.12910 | 120.54259 | 17289 ft | 352 kts | 285° |
| 2026-04-15 15:02 | 22.13590 | 120.51732 | 16824 ft | 350 kts | 285° |
| 2026-04-15 15:02 | 22.14265 | 120.49227 | 16383 ft | 348 kts | 285° |
| 2026-04-15 15:03 | 22.14939 | 120.46730 | 15928 ft | 346 kts | 285° |
| 2026-04-15 15:03 | 22.15612 | 120.44241 | 15498 ft | 344 kts | 285° |
| 2026-04-15 15:03 | 22.16281 | 120.41770 | 15062 ft | 343 kts | 285° |
| 2026-04-15 15:03 | 22.16949 | 120.39307 | 14634 ft | 341 kts | 285° |
| 2026-04-15 15:04 | 22.17614 | 120.36860 | 14252 ft | 338 kts | 285° |
| 2026-04-15 15:04 | 22.18276 | 120.34435 | 13847 ft | 337 kts | 285° |
| 2026-04-15 15:04 | 22.18938 | 120.32012 | 13396 ft | 335 kts | 285° |
| 2026-04-15 15:04 | 22.19595 | 120.29608 | 12937 ft | 334 kts | 286° |
| 2026-04-15 15:05 | 22.20250 | 120.27206 | 12504 ft | 332 kts | 286° |
| 2026-04-15 15:05 | 22.21081 | 120.24917 | 11988 ft | 330 kts | 300° |
| 2026-04-15 15:05 | 22.22512 | 120.22983 | 11508 ft | 331 kts | 312° |
| 2026-04-15 15:05 | 22.24142 | 120.21240 | 11116 ft | 329 kts | 315° |
| 2026-04-15 15:06 | 22.27454 | 120.17847 | 10279 ft | 327 kts | 315° |
| 2026-04-15 15:06 | 22.29096 | 120.16171 | 9944 ft | 324 kts | 316° |
| 2026-04-15 15:06 | 22.30709 | 120.14523 | 9799 ft | 313 kts | 316° |
| 2026-04-15 15:07 | 22.32233 | 120.12963 | 9589 ft | 292 kts | 316° |
| 2026-04-15 15:07 | 22.33666 | 120.11492 | 9222 ft | 277 kts | 316° |
| 2026-04-15 15:07 | 22.35051 | 120.10071 | 8657 ft | 274 kts | 316° |
| 2026-04-15 15:07 | 22.36444 | 120.08642 | 8246 ft | 276 kts | 316° |
| 2026-04-15 15:08 | 22.37811 | 120.07236 | 8034 ft | 272 kts | 316° |
| 2026-04-15 15:08 | 22.39190 | 120.05812 | 7731 ft | 270 kts | 316° |
| 2026-04-15 15:08 | 22.40512 | 120.04445 | 7326 ft | 264 kts | 316° |
| 2026-04-15 15:08 | 22.41977 | 120.03226 | 6648 ft | 265 kts | 335° |
| 2026-04-15 15:09 | 22.43759 | 120.02773 | 6092 ft | 271 kts | 354° |
| 2026-04-15 15:09 | 22.45625 | 120.02633 | 5887 ft | 267 kts | 355° |
| 2026-04-15 15:09 | 22.47459 | 120.02513 | 5699 ft | 263 kts | 356° |
| 2026-04-15 15:09 | 22.49280 | 120.02395 | 5399 ft | 261 kts | 355° |
| 2026-04-15 15:10 | 22.51084 | 120.02274 | 5153 ft | 258 kts | 356° |
| 2026-04-15 15:10 | 22.52864 | 120.02283 | 4750 ft | 257 kts | 12° |
| 2026-04-15 15:10 | 22.54444 | 120.03129 | 4492 ft | 254 kts | 42° |
| 2026-04-15 15:10 | 22.55446 | 120.04644 | 4348 ft | 244 kts | 62° |
| 2026-04-15 15:11 | 22.56156 | 120.06278 | 4205 ft | 237 kts | 65° |
| 2026-04-15 15:11 | 22.56812 | 120.07888 | 4021 ft | 231 kts | 65° |
| 2026-04-15 15:11 | 22.57440 | 120.09448 | 3875 ft | 222 kts | 65° |
| 2026-04-15 15:11 | 22.58039 | 120.10959 | 3708 ft | 214 kts | 69° |
| 2026-04-15 15:12 | 22.58293 | 120.12526 | 3435 ft | 212 kts | 85° |
| 2026-04-15 15:12 | 22.58318 | 120.14101 | 3205 ft | 208 kts | 88° |
| 2026-04-15 15:12 | 22.58292 | 120.15629 | 3094 ft | 197 kts | 90° |
| 2026-04-15 15:12 | 22.58250 | 120.17117 | 2931 ft | 200 kts | 89° |
| 2026-04-15 15:13 | 22.58205 | 120.18623 | 2675 ft | 200 kts | 89° |
| 2026-04-15 15:13 | 22.58159 | 120.20116 | 2414 ft | 197 kts | 89° |
| 2026-04-15 15:13 | 22.58113 | 120.21555 | 2195 ft | 184 kts | 89° |
| 2026-04-15 15:13 | 22.58072 | 120.22939 | 1949 ft | 185 kts | 89° |
| 2026-04-15 15:14 | 22.58030 | 120.24284 | 1692 ft | 173 kts | 88° |
| 2026-04-15 15:14 | 22.57993 | 120.25544 | 1481 ft | 159 kts | 88° |
| 2026-04-15 15:14 | 22.57956 | 120.26717 | 1281 ft | 153 kts | 89° |
| 2026-04-15 15:14 | 22.57921 | 120.27846 | 1074 ft | 148 kts | 88° |
| 2026-04-15 15:15 | 22.57889 | 120.28967 | 901 ft | 150 kts | 87° |
| 2026-04-15 15:15 | 22.57855 | 120.30095 | 724 ft | 150 kts | 90° |
| 2026-04-15 15:15 | 22.57821 | 120.31230 | 496 ft | 151 kts | 89° |
| 2026-04-15 15:15 | 22.57787 | 120.32350 | 311 ft | 147 kts | 88° |
| 2026-04-15 15:16 | 22.57755 | 120.33450 | 106 ft | 147 kts | 88° |
| 2026-04-15 15:16 | 22.57722 | 120.34529 | 44 ft | 133 kts | 90° |
| 2026-04-15 15:16 | 22.57698 | 120.35306 | 43 ft | 71 kts | 91° |
| 2026-04-15 15:16 | 22.57686 | 120.35697 | 43 ft | 35 kts | 92° |
| 2026-04-15 15:17 | 22.57680 | 120.35864 | 44 ft | 11 kts | 93° |
| 2026-04-15 15:17 | 22.57647 | 120.35914 | 44 ft | 9 kts | 158° |
| 2026-04-15 15:17 | 22.57572 | 120.35914 | 43 ft | 13 kts | 183° |
| 2026-04-15 15:17 | 22.57515 | 120.35870 | 43 ft | 11 kts | 266° |
| 2026-04-15 15:18 | 22.57516 | 120.35779 | 43 ft | 13 kts | 271° |
| 2026-04-15 15:18 | 22.57520 | 120.35669 | 43 ft | 16 kts | 272° |
| 2026-04-15 15:18 | 22.57523 | 120.35543 | 43 ft | 18 kts | 272° |
| 2026-04-15 15:18 | 22.57528 | 120.35402 | 42 ft | 20 kts | 272° |
| 2026-04-15 15:19 | 22.57533 | 120.35242 | 42 ft | 22 kts | 271° |
| 2026-04-15 15:19 | 22.57538 | 120.35073 | 43 ft | 23 kts | 272° |
| 2026-04-15 15:19 | 22.57543 | 120.34913 | 43 ft | 15 kts | 272° |
| 2026-04-15 15:19 | 22.57546 | 120.34817 | 43 ft | 14 kts | 272° |
| 2026-04-15 15:20 | 22.57549 | 120.34718 | 43 ft | 9 kts | 272° |
| 2026-04-15 15:20 | 22.57549 | 120.34705 | 43 ft | 0 kts | 271° |
| 2026-04-15 15:22 | 22.57549 | 120.34693 | 43 ft | 3 kts | 271° |
| 2026-04-15 15:22 | 22.57550 | 120.34673 | 43 ft | 5 kts | 272° |
| 2026-04-15 15:23 | 22.57522 | 120.34624 | 42 ft | 7 kts | 208° |
| 2026-04-15 15:23 | 22.57484 | 120.34617 | 43 ft | 9 kts | 185° |
| 2026-04-15 15:23 | 22.57416 | 120.34608 | 43 ft | 8 kts | 206° |
| 2026-04-15 15:23 | 22.57395 | 120.34546 | 43 ft | 10 kts | 270° |
| 2026-04-15 15:24 | 22.57398 | 120.34459 | 43 ft | 13 kts | 272° |
| 2026-04-15 15:24 | 22.57401 | 120.34369 | 43 ft | 8 kts | 272° |
| 2026-04-15 15:24 | 22.57375 | 120.34330 | 42 ft | 7 kts | 202° |
| 2026-04-15 15:24 | 22.57313 | 120.34325 | 43 ft | 10 kts | 180° |
| 2026-04-15 15:25 | 22.57242 | 120.34324 | 43 ft | 6 kts | 181° |
| 2026-04-15 15:25 | 22.57210 | 120.34322 | 43 ft | 4 kts | 193° |
| 2026-04-15 15:25 | 22.57194 | 120.34291 | 43 ft | 6 kts | 257° |
| 2026-04-15 15:25 | 22.57193 | 120.34262 | 43 ft | 1 kts | 273° |
| 2026-04-15 15:26 | 22.57194 | 120.34249 | 43 ft | 2 kts | 273° |
| 2026-04-15 15:26 | 22.57194 | 120.34237 | 43 ft | 1 kts | 272° |
| 2026-04-15 15:26 | 22.57194 | 120.34232 | 43 ft | 0 kts | 272° |